sensor_id;sensor_type;location;lat;lon;timestamp;pressure;altitude;pressure_sealevel;temperature;humidity
17711;BME280;8975;57.718;12.134;2023-02-10T00:00:04;115940.22;;;-142.68;45.69
17711;BME280;8975;57.718;12.134;2023-02-10T00:02:29;115940.22;;;-142.68;45.09
17711;BME280;8975;57.718;12.134;2023-02-10T00:04:55;115940.22;;;-142.68;45.58
17711;BME280;8975;57.718;12.134;2023-02-10T00:07:20;115940.22;;;-142.68;46.05
17711;BME280;8975;57.718;12.134;2023-02-10T00:09:46;115940.22;;;-142.68;46.38
17711;BME280;8975;57.718;12.134;2023-02-10T00:12:12;115940.22;;;-142.68;46.99
17711;BME280;8975;57.718;12.134;2023-02-10T00:14:38;115940.22;;;-142.68;46.17
17711;BME280;8975;57.718;12.134;2023-02-10T00:17:04;115940.22;;;-142.68;45.92
17711;BME280;8975;57.718;12.134;2023-02-10T00:19:30;115940.22;;;-142.68;45.83
17711;BME280;8975;57.718;12.134;2023-02-10T00:21:57;115940.22;;;-142.68;46.07
17711;BME280;8975;57.718;12.134;2023-02-10T00:24:22;115940.22;;;-142.68;46.08
17711;BME280;8975;57.718;12.134;2023-02-10T00:26:49;115940.22;;;-142.68;46.09
17711;BME280;8975;57.718;12.134;2023-02-10T00:29:15;115940.22;;;-142.68;46.07
17711;BME280;8975;57.718;12.134;2023-02-10T00:31:41;115940.22;;;-142.68;45.50
17711;BME280;8975;57.718;12.134;2023-02-10T00:34:10;115940.22;;;-142.68;45.55
17711;BME280;8975;57.718;12.134;2023-02-10T00:36:36;115940.22;;;-142.68;46.00
17711;BME280;8975;57.718;12.134;2023-02-10T00:39:01;115940.22;;;-142.68;45.29
17711;BME280;8975;57.718;12.134;2023-02-10T00:41:27;115940.22;;;-142.68;45.70
17711;BME280;8975;57.718;12.134;2023-02-10T00:43:53;115940.22;;;-142.68;45.47
17711;BME280;8975;57.718;12.134;2023-02-10T00:46:20;115940.22;;;-142.68;45.79
17711;BME280;8975;57.718;12.134;2023-02-10T00:48:46;115940.22;;;-142.68;45.46
17711;BME280;8975;57.718;12.134;2023-02-10T00:51:12;115940.22;;;-142.68;45.35
17711;BME280;8975;57.718;12.134;2023-02-10T00:53:38;115940.22;;;-142.68;46.40
17711;BME280;8975;57.718;12.134;2023-02-10T00:56:04;115940.22;;;-142.68;45.84
17711;BME280;8975;57.718;12.134;2023-02-10T00:58:30;115940.22;;;-142.68;46.16
17711;BME280;8975;57.718;12.134;2023-02-10T01:00:55;115940.22;;;-142.68;45.39
17711;BME280;8975;57.718;12.134;2023-02-10T01:03:21;115940.22;;;-142.68;45.91
17711;BME280;8975;57.718;12.134;2023-02-10T01:05:47;115940.22;;;-142.68;46.63
17711;BME280;8975;57.718;12.134;2023-02-10T01:08:13;115940.22;;;-142.68;46.26
17711;BME280;8975;57.718;12.134;2023-02-10T01:10:40;115940.22;;;-142.68;46.37
17711;BME280;8975;57.718;12.134;2023-02-10T01:13:06;115940.22;;;-142.68;46.99
17711;BME280;8975;57.718;12.134;2023-02-10T01:15:32;115940.22;;;-142.68;47.79
17711;BME280;8975;57.718;12.134;2023-02-10T01:17:58;115940.22;;;-142.68;47.85
17711;BME280;8975;57.718;12.134;2023-02-10T01:20:24;115940.22;;;-142.68;48.58
17711;BME280;8975;57.718;12.134;2023-02-10T01:22:50;115940.22;;;-142.68;48.07
17711;BME280;8975;57.718;12.134;2023-02-10T01:25:15;115940.22;;;-142.68;48.36
17711;BME280;8975;57.718;12.134;2023-02-10T01:27:41;115940.22;;;-142.68;47.87
17711;BME280;8975;57.718;12.134;2023-02-10T01:30:07;115940.22;;;-142.68;47.90
17711;BME280;8975;57.718;12.134;2023-02-10T01:32:32;115940.22;;;-142.68;47.70
17711;BME280;8975;57.718;12.134;2023-02-10T01:34:58;115940.22;;;-142.68;47.36
17711;BME280;8975;57.718;12.134;2023-02-10T01:37:23;115940.22;;;-142.68;47.77
17711;BME280;8975;57.718;12.134;2023-02-10T01:39:48;115940.22;;;-142.68;47.68
17711;BME280;8975;57.718;12.134;2023-02-10T01:42:15;115940.22;;;-142.68;48.38
17711;BME280;8975;57.718;12.134;2023-02-10T01:47:07;115940.22;;;-142.68;47.77
17711;BME280;8975;57.718;12.134;2023-02-10T01:49:42;115940.22;;;-142.68;47.35
17711;BME280;8975;57.718;12.134;2023-02-10T01:52:12;115940.22;;;-142.68;47.77
17711;BME280;8975;57.718;12.134;2023-02-10T01:54:43;115940.22;;;-142.68;47.27
17711;BME280;8975;57.718;12.134;2023-02-10T01:57:10;115940.22;;;-142.68;47.72
17711;BME280;8975;57.718;12.134;2023-02-10T01:59:37;115940.22;;;-142.68;47.15
17711;BME280;8975;57.718;12.134;2023-02-10T02:02:05;115940.22;;;-142.68;47.74
17711;BME280;8975;57.718;12.134;2023-02-10T02:04:46;115940.22;;;-142.68;47.23
17711;BME280;8975;57.718;12.134;2023-02-10T02:07:13;115940.22;;;-142.68;47.45
17711;BME280;8975;57.718;12.134;2023-02-10T02:09:39;115940.22;;;-142.68;46.65
17711;BME280;8975;57.718;12.134;2023-02-10T02:12:28;115940.22;;;-142.68;46.58
17711;BME280;8975;57.718;12.134;2023-02-10T02:34:13;115940.22;;;-142.68;46.59
17711;BME280;8975;57.718;12.134;2023-02-10T02:36:46;115940.22;;;-142.68;46.76
17711;BME280;8975;57.718;12.134;2023-02-10T02:39:14;115940.22;;;-142.68;46.12
17711;BME280;8975;57.718;12.134;2023-02-10T02:41:39;115940.22;;;-142.68;46.11
17711;BME280;8975;57.718;12.134;2023-02-10T02:44:06;115940.22;;;-142.68;46.21
17711;BME280;8975;57.718;12.134;2023-02-10T02:50:25;115940.22;;;-142.68;46.64
17711;BME280;8975;57.718;12.134;2023-02-10T02:52:42;115940.22;;;-142.68;46.45
17711;BME280;8975;57.718;12.134;2023-02-10T02:55:23;115940.22;;;-142.68;45.39
17711;BME280;8975;57.718;12.134;2023-02-10T02:58:13;115940.22;;;-142.68;45.78
17711;BME280;8975;57.718;12.134;2023-02-10T03:00:42;115940.22;;;-142.68;46.00
17711;BME280;8975;57.718;12.134;2023-02-10T03:03:10;115940.22;;;-142.68;45.59
17711;BME280;8975;57.718;12.134;2023-02-10T03:05:35;115940.22;;;-142.68;45.63
17711;BME280;8975;57.718;12.134;2023-02-10T03:08:01;115940.22;;;-142.68;45.72
17711;BME280;8975;57.718;12.134;2023-02-10T03:10:27;115940.22;;;-142.68;45.83
17711;BME280;8975;57.718;12.134;2023-02-10T03:12:53;115940.22;;;-142.68;45.28
17711;BME280;8975;57.718;12.134;2023-02-10T03:15:18;115940.22;;;-142.68;45.84
17711;BME280;8975;57.718;12.134;2023-02-10T03:17:44;115940.22;;;-142.68;45.90
17711;BME280;8975;57.718;12.134;2023-02-10T03:20:10;115940.22;;;-142.68;45.60
17711;BME280;8975;57.718;12.134;2023-02-10T03:22:36;115940.22;;;-142.68;45.36
17711;BME280;8975;57.718;12.134;2023-02-10T03:25:01;115940.22;;;-142.68;45.29
17711;BME280;8975;57.718;12.134;2023-02-10T03:27:27;115940.22;;;-142.68;45.00
17711;BME280;8975;57.718;12.134;2023-02-10T03:29:52;115940.22;;;-142.68;44.85
17711;BME280;8975;57.718;12.134;2023-02-10T03:32:18;115940.22;;;-142.68;44.58
17711;BME280;8975;57.718;12.134;2023-02-10T03:34:44;115940.22;;;-142.68;44.99
17711;BME280;8975;57.718;12.134;2023-02-10T03:37:10;115940.22;;;-142.68;44.32
17711;BME280;8975;57.718;12.134;2023-02-10T03:39:36;115940.22;;;-142.68;44.43
17711;BME280;8975;57.718;12.134;2023-02-10T03:42:02;115940.22;;;-142.68;44.36
17711;BME280;8975;57.718;12.134;2023-02-10T03:44:27;115940.22;;;-142.68;44.39
17711;BME280;8975;57.718;12.134;2023-02-10T03:46:52;115940.22;;;-142.68;44.36
17711;BME280;8975;57.718;12.134;2023-02-10T03:49:18;115940.22;;;-142.68;44.20
17711;BME280;8975;57.718;12.134;2023-02-10T03:51:43;115940.22;;;-142.68;43.63
17711;BME280;8975;57.718;12.134;2023-02-10T03:54:09;115940.22;;;-142.68;43.84
17711;BME280;8975;57.718;12.134;2023-02-10T03:56:34;115940.22;;;-142.68;44.19
17711;BME280;8975;57.718;12.134;2023-02-10T03:59:01;115940.22;;;-142.68;45.23
17711;BME280;8975;57.718;12.134;2023-02-10T04:01:26;115940.22;;;-142.68;45.47
17711;BME280;8975;57.718;12.134;2023-02-10T04:03:52;115940.22;;;-142.68;45.68
17711;BME280;8975;57.718;12.134;2023-02-10T04:06:17;115940.22;;;-142.68;45.83
17711;BME280;8975;57.718;12.134;2023-02-10T04:08:43;115940.22;;;-142.68;45.79
17711;BME280;8975;57.718;12.134;2023-02-10T04:11:08;115940.22;;;-142.68;45.74
17711;BME280;8975;57.718;12.134;2023-02-10T04:13:35;115940.22;;;-142.68;45.88
17711;BME280;8975;57.718;12.134;2023-02-10T04:18:27;115940.22;;;-142.68;45.61
17711;BME280;8975;57.718;12.134;2023-02-10T04:20:52;115940.22;;;-142.68;44.76
17711;BME280;8975;57.718;12.134;2023-02-10T04:23:18;115940.22;;;-142.68;44.66
17711;BME280;8975;57.718;12.134;2023-02-10T04:25:43;115940.22;;;-142.68;44.82
17711;BME280;8975;57.718;12.134;2023-02-10T04:28:08;115940.22;;;-142.68;45.38
17711;BME280;8975;57.718;12.134;2023-02-10T04:30:34;115940.22;;;-142.68;45.08
17711;BME280;8975;57.718;12.134;2023-02-10T04:32:59;115940.22;;;-142.68;45.13
17711;BME280;8975;57.718;12.134;2023-02-10T04:35:25;115940.22;;;-142.68;45.24
17711;BME280;8975;57.718;12.134;2023-02-10T04:37:50;115940.22;;;-142.68;45.59
17711;BME280;8975;57.718;12.134;2023-02-10T04:40:15;115940.22;;;-142.68;45.23
17711;BME280;8975;57.718;12.134;2023-02-10T04:42:41;115940.22;;;-142.68;45.12
17711;BME280;8975;57.718;12.134;2023-02-10T04:45:06;115940.22;;;-142.68;44.79
17711;BME280;8975;57.718;12.134;2023-02-10T04:47:32;115940.22;;;-142.68;45.13
17711;BME280;8975;57.718;12.134;2023-02-10T04:49:57;115940.22;;;-142.68;45.34
17711;BME280;8975;57.718;12.134;2023-02-10T04:52:24;115940.22;;;-142.68;45.38
17711;BME280;8975;57.718;12.134;2023-02-10T04:54:50;115940.22;;;-142.68;45.77
17711;BME280;8975;57.718;12.134;2023-02-10T04:57:15;115940.22;;;-142.68;45.39
17711;BME280;8975;57.718;12.134;2023-02-10T04:59:41;115940.22;;;-142.68;44.99
17711;BME280;8975;57.718;12.134;2023-02-10T05:02:06;115940.22;;;-142.68;44.56
17711;BME280;8975;57.718;12.134;2023-02-10T05:04:31;115940.22;;;-142.68;44.42
17711;BME280;8975;57.718;12.134;2023-02-10T05:06:57;115940.22;;;-142.68;43.65
17711;BME280;8975;57.718;12.134;2023-02-10T05:09:24;115940.22;;;-142.68;43.47
17711;BME280;8975;57.718;12.134;2023-02-10T05:11:50;115940.22;;;-142.68;43.03
17711;BME280;8975;57.718;12.134;2023-02-10T05:14:15;115940.22;;;-142.68;42.71
17711;BME280;8975;57.718;12.134;2023-02-10T05:16:40;115940.22;;;-142.68;41.92
17711;BME280;8975;57.718;12.134;2023-02-10T05:19:06;115940.22;;;-142.68;42.11
17711;BME280;8975;57.718;12.134;2023-02-10T05:21:31;115940.22;;;-142.68;42.18
17711;BME280;8975;57.718;12.134;2023-02-10T05:23:58;115940.22;;;-142.68;42.13
17711;BME280;8975;57.718;12.134;2023-02-10T05:26:23;115940.22;;;-142.68;42.36
17711;BME280;8975;57.718;12.134;2023-02-10T05:28:49;115940.22;;;-142.68;42.44
17711;BME280;8975;57.718;12.134;2023-02-10T05:31:14;115940.22;;;-142.68;42.75
17711;BME280;8975;57.718;12.134;2023-02-10T05:33:39;115940.22;;;-142.68;42.87
17711;BME280;8975;57.718;12.134;2023-02-10T05:36:05;115940.22;;;-142.68;42.34
17711;BME280;8975;57.718;12.134;2023-02-10T05:38:31;115940.22;;;-142.68;42.42
17711;BME280;8975;57.718;12.134;2023-02-10T05:40:56;115940.22;;;-142.68;42.85
17711;BME280;8975;57.718;12.134;2023-02-10T05:43:22;115940.22;;;-142.68;43.02
17711;BME280;8975;57.718;12.134;2023-02-10T05:45:49;115940.22;;;-142.68;42.87
17711;BME280;8975;57.718;12.134;2023-02-10T05:48:14;115940.22;;;-142.68;42.32
17711;BME280;8975;57.718;12.134;2023-02-10T05:50:40;115940.22;;;-142.68;42.56
17711;BME280;8975;57.718;12.134;2023-02-10T05:53:06;115940.22;;;-142.68;42.41
17711;BME280;8975;57.718;12.134;2023-02-10T05:55:32;115940.22;;;-142.68;42.33
17711;BME280;8975;57.718;12.134;2023-02-10T05:57:57;115940.22;;;-142.68;41.67
17711;BME280;8975;57.718;12.134;2023-02-10T06:00:23;115940.22;;;-142.68;41.71
17711;BME280;8975;57.718;12.134;2023-02-10T06:02:48;115940.22;;;-142.68;41.99
17711;BME280;8975;57.718;12.134;2023-02-10T06:05:14;115940.22;;;-142.68;42.75
17711;BME280;8975;57.718;12.134;2023-02-10T06:07:39;115940.22;;;-142.68;42.45
17711;BME280;8975;57.718;12.134;2023-02-10T06:10:06;115940.22;;;-142.68;42.57
17711;BME280;8975;57.718;12.134;2023-02-10T06:12:32;115940.22;;;-142.68;42.63
17711;BME280;8975;57.718;12.134;2023-02-10T06:14:57;115940.22;;;-142.68;42.47
17711;BME280;8975;57.718;12.134;2023-02-10T06:17:22;115940.22;;;-142.68;42.36
17711;BME280;8975;57.718;12.134;2023-02-10T06:19:48;115940.22;;;-142.68;42.07
17711;BME280;8975;57.718;12.134;2023-02-10T06:22:14;115940.22;;;-142.68;42.28
17711;BME280;8975;57.718;12.134;2023-02-10T06:24:40;115940.22;;;-142.68;42.13
17711;BME280;8975;57.718;12.134;2023-02-10T06:27:06;115940.22;;;-142.68;41.92
17711;BME280;8975;57.718;12.134;2023-02-10T06:29:37;115940.22;;;-142.68;42.46
17711;BME280;8975;57.718;12.134;2023-02-10T06:32:02;115940.22;;;-142.68;42.57
17711;BME280;8975;57.718;12.134;2023-02-10T06:34:28;115940.22;;;-142.68;42.01
17711;BME280;8975;57.718;12.134;2023-02-10T06:36:53;115940.22;;;-142.68;41.57
17711;BME280;8975;57.718;12.134;2023-02-10T06:39:18;115940.22;;;-142.68;41.89
17711;BME280;8975;57.718;12.134;2023-02-10T06:41:44;115940.22;;;-142.68;41.91
17711;BME280;8975;57.718;12.134;2023-02-10T06:44:09;115940.22;;;-142.68;42.09
17711;BME280;8975;57.718;12.134;2023-02-10T06:46:35;115940.22;;;-142.68;42.12
17711;BME280;8975;57.718;12.134;2023-02-10T06:49:02;115940.22;;;-142.68;41.69
17711;BME280;8975;57.718;12.134;2023-02-10T06:51:27;115940.22;;;-142.68;41.95
17711;BME280;8975;57.718;12.134;2023-02-10T06:53:53;115940.22;;;-142.68;41.96
17711;BME280;8975;57.718;12.134;2023-02-10T06:56:18;115940.22;;;-142.68;41.88
17711;BME280;8975;57.718;12.134;2023-02-10T06:58:44;115940.22;;;-142.68;41.89
17711;BME280;8975;57.718;12.134;2023-02-10T07:01:11;115940.22;;;-142.68;42.19
17711;BME280;8975;57.718;12.134;2023-02-10T07:03:36;115940.22;;;-142.68;42.70
17711;BME280;8975;57.718;12.134;2023-02-10T07:06:03;115940.22;;;-142.68;41.93
17711;BME280;8975;57.718;12.134;2023-02-10T07:08:29;115940.22;;;-142.68;42.80
17711;BME280;8975;57.718;12.134;2023-02-10T07:10:54;115940.22;;;-142.68;42.86
17711;BME280;8975;57.718;12.134;2023-02-10T07:13:20;115940.22;;;-142.68;42.61
17711;BME280;8975;57.718;12.134;2023-02-10T07:15:45;115940.22;;;-142.68;42.56
17711;BME280;8975;57.718;12.134;2023-02-10T07:18:11;115940.22;;;-142.68;42.49
17711;BME280;8975;57.718;12.134;2023-02-10T07:20:37;115940.22;;;-142.68;42.96
17711;BME280;8975;57.718;12.134;2023-02-10T07:23:02;115940.22;;;-142.68;42.60
17711;BME280;8975;57.718;12.134;2023-02-10T07:25:28;115940.22;;;-142.68;42.94
17711;BME280;8975;57.718;12.134;2023-02-10T07:27:53;115940.22;;;-142.68;42.70
17711;BME280;8975;57.718;12.134;2023-02-10T07:30:18;115940.22;;;-142.68;43.04
17711;BME280;8975;57.718;12.134;2023-02-10T07:32:44;115940.22;;;-142.68;43.22
17711;BME280;8975;57.718;12.134;2023-02-10T07:35:10;115940.22;;;-142.68;43.00
17711;BME280;8975;57.718;12.134;2023-02-10T07:37:36;115940.22;;;-142.68;42.71
17711;BME280;8975;57.718;12.134;2023-02-10T07:40:02;115940.22;;;-142.68;43.25
17711;BME280;8975;57.718;12.134;2023-02-10T07:42:28;115940.22;;;-142.68;43.36
17711;BME280;8975;57.718;12.134;2023-02-10T07:44:53;115940.22;;;-142.68;43.43
17711;BME280;8975;57.718;12.134;2023-02-10T07:47:19;115940.22;;;-142.68;43.06
17711;BME280;8975;57.718;12.134;2023-02-10T07:49:44;115940.22;;;-142.68;43.27
17711;BME280;8975;57.718;12.134;2023-02-10T07:52:10;115940.22;;;-142.68;42.82
17711;BME280;8975;57.718;12.134;2023-02-10T07:54:36;115940.22;;;-142.68;43.70
17711;BME280;8975;57.718;12.134;2023-02-10T07:57:01;115940.22;;;-142.68;43.30
17711;BME280;8975;57.718;12.134;2023-02-10T07:59:27;115940.22;;;-142.68;43.15
17711;BME280;8975;57.718;12.134;2023-02-10T08:01:52;115940.22;;;-142.68;42.47
17711;BME280;8975;57.718;12.134;2023-02-10T08:04:18;115940.22;;;-142.68;42.54
17711;BME280;8975;57.718;12.134;2023-02-10T08:06:43;115940.22;;;-142.68;42.36
17711;BME280;8975;57.718;12.134;2023-02-10T08:09:09;115940.22;;;-142.68;42.01
17711;BME280;8975;57.718;12.134;2023-02-10T08:11:34;115940.22;;;-142.68;41.43
17711;BME280;8975;57.718;12.134;2023-02-10T08:14:01;115940.22;;;-142.68;41.36
17711;BME280;8975;57.718;12.134;2023-02-10T08:16:26;115940.22;;;-142.68;41.79
17711;BME280;8975;57.718;12.134;2023-02-10T08:18:52;115940.22;;;-142.68;41.34
17711;BME280;8975;57.718;12.134;2023-02-10T08:21:17;115940.22;;;-142.68;41.20
17711;BME280;8975;57.718;12.134;2023-02-10T08:23:42;115940.22;;;-142.68;40.67
17711;BME280;8975;57.718;12.134;2023-02-10T08:26:10;115940.22;;;-142.68;41.02
17711;BME280;8975;57.718;12.134;2023-02-10T08:28:38;115940.22;;;-142.68;40.60
17711;BME280;8975;57.718;12.134;2023-02-10T08:31:06;115940.22;;;-142.68;40.77
17711;BME280;8975;57.718;12.134;2023-02-10T08:33:36;115940.22;;;-142.68;40.29
17711;BME280;8975;57.718;12.134;2023-02-10T08:36:07;115940.22;;;-142.68;40.57
17711;BME280;8975;57.718;12.134;2023-02-10T08:38:33;115940.22;;;-142.68;40.41
17711;BME280;8975;57.718;12.134;2023-02-10T08:40:59;115940.22;;;-142.68;40.44
17711;BME280;8975;57.718;12.134;2023-02-10T08:43:25;115940.22;;;-142.68;40.48
17711;BME280;8975;57.718;12.134;2023-02-10T08:45:50;115940.22;;;-142.68;40.59
17711;BME280;8975;57.718;12.134;2023-02-10T08:48:17;115940.22;;;-142.68;40.87
17711;BME280;8975;57.718;12.134;2023-02-10T08:50:43;115940.22;;;-142.68;40.96
17711;BME280;8975;57.718;12.134;2023-02-10T08:53:08;115940.22;;;-142.68;41.17
17711;BME280;8975;57.718;12.134;2023-02-10T08:55:35;115940.22;;;-142.68;41.22
17711;BME280;8975;57.718;12.134;2023-02-10T08:58:00;115940.22;;;-142.68;41.26
17711;BME280;8975;57.718;12.134;2023-02-10T09:00:26;115940.22;;;-142.68;41.60
17711;BME280;8975;57.718;12.134;2023-02-10T09:02:51;115940.22;;;-142.68;41.95
17711;BME280;8975;57.718;12.134;2023-02-10T09:05:16;115940.22;;;-142.68;42.07
17711;BME280;8975;57.718;12.134;2023-02-10T09:07:44;115940.22;;;-142.68;42.43
17711;BME280;8975;57.718;12.134;2023-02-10T09:10:10;115940.22;;;-142.68;42.60
17711;BME280;8975;57.718;12.134;2023-02-10T09:12:37;115940.22;;;-142.68;42.92
17711;BME280;8975;57.718;12.134;2023-02-10T09:15:03;115940.22;;;-142.68;42.34
17711;BME280;8975;57.718;12.134;2023-02-10T09:17:29;115940.22;;;-142.68;42.32
17711;BME280;8975;57.718;12.134;2023-02-10T09:19:54;115940.22;;;-142.68;42.15
17711;BME280;8975;57.718;12.134;2023-02-10T09:22:20;115940.22;;;-142.68;42.47
17711;BME280;8975;57.718;12.134;2023-02-10T09:24:45;115940.22;;;-142.68;42.75
17711;BME280;8975;57.718;12.134;2023-02-10T09:27:15;115940.22;;;-142.68;42.13
17711;BME280;8975;57.718;12.134;2023-02-10T09:29:40;115940.22;;;-142.68;42.36
17711;BME280;8975;57.718;12.134;2023-02-10T09:32:06;115940.22;;;-142.68;42.19
17711;BME280;8975;57.718;12.134;2023-02-10T09:34:31;115940.22;;;-142.68;41.81
17711;BME280;8975;57.718;12.134;2023-02-10T09:36:57;115940.22;;;-142.68;42.02
17711;BME280;8975;57.718;12.134;2023-02-10T09:39:26;115940.22;;;-142.68;42.14
17711;BME280;8975;57.718;12.134;2023-02-10T09:42:03;115940.22;;;-142.68;41.99
17711;BME280;8975;57.718;12.134;2023-02-10T09:44:35;115940.22;;;-142.68;41.05
17711;BME280;8975;57.718;12.134;2023-02-10T09:47:28;115940.22;;;-142.68;41.87
17711;BME280;8975;57.718;12.134;2023-02-10T09:50:28;115940.22;;;-142.68;41.75
17711;BME280;8975;57.718;12.134;2023-02-10T09:55:43;115940.22;;;-142.68;41.50
17711;BME280;8975;57.718;12.134;2023-02-10T10:04:04;115940.22;;;-142.68;41.00
17711;BME280;8975;57.718;12.134;2023-02-10T10:06:43;115940.22;;;-142.68;40.77
17711;BME280;8975;57.718;12.134;2023-02-10T10:11:43;115940.22;;;-142.68;40.01
17711;BME280;8975;57.718;12.134;2023-02-10T10:14:19;115940.22;;;-142.68;40.51
17711;BME280;8975;57.718;12.134;2023-02-10T10:33:24;115940.22;;;-142.68;41.77
17711;BME280;8975;57.718;12.134;2023-02-10T10:35:52;115940.22;;;-142.68;41.25
17711;BME280;8975;57.718;12.134;2023-02-10T10:38:24;115940.22;;;-142.68;40.52
17711;BME280;8975;57.718;12.134;2023-02-10T10:40:52;115940.22;;;-142.68;40.78
17711;BME280;8975;57.718;12.134;2023-02-10T10:43:26;115940.22;;;-142.68;40.38
17711;BME280;8975;57.718;12.134;2023-02-10T10:46:15;115940.22;;;-142.68;40.77
17711;BME280;8975;57.718;12.134;2023-02-10T10:48:44;115940.22;;;-142.68;40.95
17711;BME280;8975;57.718;12.134;2023-02-10T10:51:11;115940.22;;;-142.68;40.47
17711;BME280;8975;57.718;12.134;2023-02-10T10:54:04;115940.22;;;-142.68;40.35
17711;BME280;8975;57.718;12.134;2023-02-10T10:56:44;115940.22;;;-142.68;41.39
17711;BME280;8975;57.718;12.134;2023-02-10T11:02:25;115940.22;;;-142.68;42.09
17711;BME280;8975;57.718;12.134;2023-02-10T11:05:04;115940.22;;;-142.68;42.03
17711;BME280;8975;57.718;12.134;2023-02-10T11:07:32;115940.22;;;-142.68;42.56
17711;BME280;8975;57.718;12.134;2023-02-10T11:09:59;115940.22;;;-142.68;42.35
17711;BME280;8975;57.718;12.134;2023-02-10T11:12:32;115940.22;;;-142.68;42.14
17711;BME280;8975;57.718;12.134;2023-02-10T11:15:00;115940.22;;;-142.68;42.62
17711;BME280;8975;57.718;12.134;2023-02-10T11:22:37;115940.22;;;-142.68;41.34
17711;BME280;8975;57.718;12.134;2023-02-10T11:27:52;115940.22;;;-142.68;41.15
17711;BME280;8975;57.718;12.134;2023-02-10T11:30:38;115940.22;;;-142.68;41.34
17711;BME280;8975;57.718;12.134;2023-02-10T11:33:05;115940.22;;;-142.68;41.52
17711;BME280;8975;57.718;12.134;2023-02-10T11:35:31;115940.22;;;-142.68;41.67
17711;BME280;8975;57.718;12.134;2023-02-10T11:38:04;115940.22;;;-142.68;41.62
17711;BME280;8975;57.718;12.134;2023-02-10T11:40:49;115940.22;;;-142.68;41.66
17711;BME280;8975;57.718;12.134;2023-02-10T11:43:15;115940.22;;;-142.68;41.03
17711;BME280;8975;57.718;12.134;2023-02-10T11:45:58;115940.22;;;-142.68;41.33
17711;BME280;8975;57.718;12.134;2023-02-10T11:48:25;115940.22;;;-142.68;40.70
17711;BME280;8975;57.718;12.134;2023-02-10T11:53:28;115940.22;;;-142.68;40.80
17711;BME280;8975;57.718;12.134;2023-02-10T11:59:02;115940.22;;;-142.68;42.14
17711;BME280;8975;57.718;12.134;2023-02-10T12:01:48;115940.22;;;-142.68;41.61
17711;BME280;8975;57.718;12.134;2023-02-10T12:04:40;115940.22;;;-142.68;41.54
17711;BME280;8975;57.718;12.134;2023-02-10T12:12:43;115940.22;;;-142.68;42.64
17711;BME280;8975;57.718;12.134;2023-02-10T12:18:31;115940.22;;;-142.68;43.06
17711;BME280;8975;57.718;12.134;2023-02-10T12:22:01;115940.22;;;-142.68;43.83
17711;BME280;8975;57.718;12.134;2023-02-10T12:26:54;115940.22;;;-142.68;44.34
17711;BME280;8975;57.718;12.134;2023-02-10T12:29:45;115940.22;;;-142.68;44.85
17711;BME280;8975;57.718;12.134;2023-02-10T12:32:44;115940.22;;;-142.68;44.45
17711;BME280;8975;57.718;12.134;2023-02-10T12:35:30;115940.22;;;-142.68;44.63
17711;BME280;8975;57.718;12.134;2023-02-10T12:43:37;115940.22;;;-142.68;44.74
17711;BME280;8975;57.718;12.134;2023-02-10T12:57:09;115940.22;;;-142.68;45.07
17711;BME280;8975;57.718;12.134;2023-02-10T12:59:56;115940.22;;;-142.68;44.80
17711;BME280;8975;57.718;12.134;2023-02-10T13:02:32;115940.22;;;-142.68;44.53
17711;BME280;8975;57.718;12.134;2023-02-10T13:05:10;115940.22;;;-142.68;45.15
17711;BME280;8975;57.718;12.134;2023-02-10T13:07:49;115940.22;;;-142.68;45.67
17711;BME280;8975;57.718;12.134;2023-02-10T13:10:35;115940.22;;;-142.68;45.93
17711;BME280;8975;57.718;12.134;2023-02-10T13:13:05;115940.22;;;-142.68;45.37
17711;BME280;8975;57.718;12.134;2023-02-10T13:15:43;115940.22;;;-142.68;45.39
17711;BME280;8975;57.718;12.134;2023-02-10T13:18:30;115940.22;;;-142.68;45.97
17711;BME280;8975;57.718;12.134;2023-02-10T13:21:14;115940.22;;;-142.68;47.08
17711;BME280;8975;57.718;12.134;2023-02-10T13:34:48;115940.22;;;-142.68;48.09
17711;BME280;8975;57.718;12.134;2023-02-10T13:37:26;115940.22;;;-142.68;48.27
17711;BME280;8975;57.718;12.134;2023-02-10T13:39:59;115940.22;;;-142.68;48.75
17711;BME280;8975;57.718;12.134;2023-02-10T13:42:35;115940.22;;;-142.68;48.39
17711;BME280;8975;57.718;12.134;2023-02-10T13:45:05;115940.22;;;-142.68;48.86
17711;BME280;8975;57.718;12.134;2023-02-10T13:52:31;115940.22;;;-142.68;48.27
17711;BME280;8975;57.718;12.134;2023-02-10T13:57:37;115940.22;;;-142.68;51.07
17711;BME280;8975;57.718;12.134;2023-02-10T14:02:35;115940.22;;;-142.68;50.78
17711;BME280;8975;57.718;12.134;2023-02-10T14:05:02;115940.22;;;-142.68;50.02
17711;BME280;8975;57.718;12.134;2023-02-10T14:07:37;115940.22;;;-142.68;49.76
17711;BME280;8975;57.718;12.134;2023-02-10T14:13:01;115940.22;;;-142.68;49.26
17711;BME280;8975;57.718;12.134;2023-02-10T14:17:56;115940.22;;;-142.68;49.68
17711;BME280;8975;57.718;12.134;2023-02-10T14:20:29;115940.22;;;-142.68;50.17
17711;BME280;8975;57.718;12.134;2023-02-10T14:22:57;115940.22;;;-142.68;49.90
17711;BME280;8975;57.718;12.134;2023-02-10T14:27:59;115940.22;;;-142.68;50.63
17711;BME280;8975;57.718;12.134;2023-02-10T14:33:04;115940.22;;;-142.68;49.88
17711;BME280;8975;57.718;12.134;2023-02-10T14:35:30;115940.22;;;-142.68;50.39
17711;BME280;8975;57.718;12.134;2023-02-10T14:37:59;115940.22;;;-142.68;49.96
17711;BME280;8975;57.718;12.134;2023-02-10T14:40:27;115940.22;;;-142.68;50.37
17711;BME280;8975;57.718;12.134;2023-02-10T14:42:53;115940.22;;;-142.68;50.53
17711;BME280;8975;57.718;12.134;2023-02-10T14:45:22;115940.22;;;-142.68;51.16
17711;BME280;8975;57.718;12.134;2023-02-10T14:47:49;115940.22;;;-142.68;50.81